createdAt,value
2017-12-28T00:00:01.290Z,4.10
2017-12-28T00:02:28.017Z,3.55
2017-12-28T00:04:54.678Z,3.90
2017-12-28T00:07:21.358Z,3.90
2017-12-28T00:09:48.018Z,3.42
2017-12-28T00:12:14.666Z,3.80
2017-12-28T00:14:41.322Z,3.80
2017-12-28T00:17:07.997Z,4.00
2017-12-28T00:19:34.644Z,4.00
2017-12-28T00:22:01.350Z,2.62
2017-12-28T00:24:28.027Z,3.45
2017-12-28T00:26:54.671Z,3.87
2017-12-28T00:29:21.330Z,3.95
2017-12-28T00:31:47.971Z,3.55
2017-12-28T00:34:14.638Z,3.60
2017-12-28T00:36:41.309Z,3.90
2017-12-28T00:39:07.974Z,3.80
2017-12-28T00:41:34.662Z,4.10
2017-12-28T00:44:01.322Z,3.75
2017-12-28T00:46:27.980Z,3.90
2017-12-28T00:48:54.659Z,2.62
2017-12-28T00:51:21.319Z,4.10
2017-12-28T00:53:48.059Z,3.90
2017-12-28T00:56:14.717Z,3.60
2017-12-28T00:58:41.375Z,3.78
2017-12-28T01:01:08.016Z,1.80
2017-12-28T01:03:34.682Z,3.87
2017-12-28T01:06:01.355Z,4.00
2017-12-28T01:08:28.010Z,1.83
2017-12-28T01:10:54.660Z,3.67
2017-12-28T01:13:21.324Z,3.80
2017-12-28T01:15:48.031Z,3.80
2017-12-28T01:18:14.697Z,3.67
2017-12-28T01:20:41.355Z,3.70
2017-12-28T01:23:08.058Z,3.90
2017-12-28T01:25:34.711Z,3.83
2017-12-28T01:28:01.393Z,2.50
2017-12-28T01:30:28.057Z,3.70
2017-12-28T01:32:54.713Z,3.70
2017-12-28T01:35:21.372Z,3.80
2017-12-28T01:37:48.020Z,3.87
2017-12-28T01:40:14.685Z,3.92
2017-12-28T01:42:41.327Z,3.80
2017-12-28T01:45:07.982Z,4.10
2017-12-28T01:47:34.651Z,3.90
2017-12-28T01:50:01.323Z,3.85
2017-12-28T01:52:28.027Z,4.10
2017-12-28T01:54:54.706Z,4.07
2017-12-28T01:57:21.349Z,2.97
2017-12-28T01:59:48.011Z,3.90
2017-12-28T02:02:14.690Z,3.70
2017-12-28T02:04:41.358Z,3.62
2017-12-28T02:07:08.022Z,3.60
2017-12-28T02:09:34.711Z,3.90
2017-12-28T02:12:01.436Z,3.83
2017-12-28T02:14:28.084Z,3.90
2017-12-28T02:16:54.762Z,4.10
2017-12-28T02:19:21.438Z,3.80
2017-12-28T02:21:48.093Z,4.20
2017-12-28T02:24:14.828Z,2.85
2017-12-28T02:26:41.490Z,3.87
2017-12-28T02:29:08.155Z,4.00
2017-12-28T02:31:34.818Z,4.00
2017-12-28T02:34:01.478Z,3.97
2017-12-28T02:36:28.122Z,2.20
2017-12-28T02:38:54.822Z,4.40
2017-12-28T02:41:21.481Z,4.30
2017-12-28T02:43:48.155Z,2.50
2017-12-28T02:46:14.810Z,4.55
2017-12-28T02:48:41.478Z,4.35
2017-12-28T02:51:08.143Z,4.45
2017-12-28T02:53:34.785Z,4.40
2017-12-28T02:56:01.423Z,4.50
2017-12-28T02:58:28.101Z,4.60
2017-12-28T03:00:54.762Z,4.80
2017-12-28T03:03:21.470Z,2.37
2017-12-28T03:05:48.131Z,4.80
2017-12-28T03:08:14.799Z,4.40
2017-12-28T03:10:41.462Z,4.60
2017-12-28T03:13:08.142Z,4.82
2017-12-28T03:15:34.894Z,5.00
2017-12-28T03:18:01.543Z,4.45
2017-12-28T03:20:28.219Z,4.68
2017-12-28T03:22:54.875Z,2.50
2017-12-28T03:25:21.511Z,4.32
2017-12-28T03:27:48.186Z,4.70
2017-12-28T03:30:14.831Z,4.50
2017-12-28T03:32:41.497Z,4.60
2017-12-28T03:35:08.151Z,4.50
2017-12-28T03:37:34.823Z,5.10
2017-12-28T03:40:01.582Z,4.82
2017-12-28T03:42:28.245Z,4.70
2017-12-28T03:44:54.887Z,4.80
2017-12-28T03:47:21.561Z,4.80
2017-12-28T03:49:48.231Z,4.90
2017-12-28T03:52:14.899Z,4.95
2017-12-28T03:54:41.560Z,4.80
2017-12-28T03:57:08.227Z,4.80
2017-12-28T03:59:34.884Z,4.90
2017-12-28T04:02:01.628Z,4.60
2017-12-28T04:04:28.268Z,4.78
2017-12-28T04:06:54.934Z,4.50
2017-12-28T04:09:21.618Z,4.62
2017-12-28T04:11:48.306Z,2.87
2017-12-28T04:14:14.986Z,4.78
2017-12-28T04:16:41.627Z,4.60
2017-12-28T04:19:08.290Z,3.08
2017-12-28T04:21:34.959Z,4.90
2017-12-28T04:24:01.622Z,4.80
2017-12-28T04:26:28.291Z,4.90
2017-12-28T04:28:54.976Z,4.90
2017-12-28T04:31:21.620Z,4.95
2017-12-28T04:33:48.274Z,4.90
2017-12-28T04:36:15.002Z,5.10
2017-12-28T04:38:41.648Z,2.70
2017-12-28T04:41:08.287Z,4.97
2017-12-28T04:43:34.955Z,5.15
2017-12-28T04:46:01.600Z,4.90
2017-12-28T04:48:28.279Z,4.90
2017-12-28T04:50:54.927Z,4.97
2017-12-28T04:53:21.662Z,4.72
2017-12-28T04:55:48.363Z,4.90
2017-12-28T04:58:15.034Z,5.10
2017-12-28T05:00:41.703Z,5.10
2017-12-28T05:03:08.378Z,5.10
2017-12-28T05:05:35.034Z,4.87
2017-12-28T05:08:01.706Z,3.75
2017-12-28T05:10:28.389Z,4.40
2017-12-28T05:12:55.050Z,5.35
2017-12-28T05:15:21.726Z,5.00
2017-12-28T05:17:48.379Z,4.85
2017-12-28T05:20:15.019Z,4.87
2017-12-28T05:22:41.708Z,4.90
2017-12-28T05:25:08.394Z,4.68
2017-12-28T05:27:35.032Z,5.15
2017-12-28T05:30:01.718Z,4.50
2017-12-28T05:32:28.366Z,4.70
2017-12-28T05:34:55.025Z,4.45
2017-12-28T05:37:21.683Z,5.03
2017-12-28T05:39:48.332Z,4.93
2017-12-28T05:42:15.066Z,4.80
2017-12-28T05:44:41.742Z,5.00
2017-12-28T05:47:08.411Z,2.70
2017-12-28T05:49:35.055Z,5.10
2017-12-28T05:52:01.744Z,5.30
2017-12-28T05:54:28.407Z,3.95
2017-12-28T05:56:55.053Z,5.00
2017-12-28T05:59:21.735Z,4.80
2017-12-28T06:01:48.489Z,4.70
2017-12-28T06:04:15.149Z,4.80
2017-12-28T06:06:41.810Z,4.70
2017-12-28T06:09:08.467Z,4.80
2017-12-28T06:11:35.134Z,4.70
2017-12-28T06:14:01.818Z,3.03
2017-12-28T06:16:28.482Z,4.80
2017-12-28T06:18:55.136Z,4.82
2017-12-28T06:21:21.804Z,4.60
2017-12-28T06:23:48.472Z,5.10
2017-12-28T06:26:15.130Z,2.40
2017-12-28T06:28:41.791Z,4.60
2017-12-28T06:31:08.457Z,4.72
2017-12-28T06:33:35.118Z,3.47
2017-12-28T06:36:01.788Z,4.90
2017-12-28T06:38:28.440Z,4.90
2017-12-28T06:40:55.099Z,4.70
2017-12-28T06:43:21.771Z,4.90
2017-12-28T06:45:48.440Z,2.50
2017-12-28T06:48:15.092Z,4.43
2017-12-28T06:50:41.772Z,2.40
2017-12-28T06:53:08.438Z,3.15
2017-12-28T06:55:35.089Z,4.82
2017-12-28T06:58:01.747Z,4.97
2017-12-28T07:00:28.408Z,5.10
2017-12-28T07:02:55.075Z,4.90
2017-12-28T07:05:21.747Z,3.45
2017-12-28T07:07:48.418Z,5.10
2017-12-28T07:10:15.094Z,4.80
2017-12-28T07:12:41.737Z,4.07
2017-12-28T07:15:08.391Z,4.62
2017-12-28T07:17:35.043Z,4.30
2017-12-28T07:20:01.752Z,4.30
2017-12-28T07:22:28.483Z,4.10
2017-12-28T07:24:55.121Z,4.05
2017-12-28T07:27:21.782Z,4.50
2017-12-28T07:29:48.526Z,4.68
2017-12-28T07:32:15.179Z,4.90
2017-12-28T07:34:41.846Z,3.05
2017-12-28T07:37:08.536Z,4.60
2017-12-28T07:39:35.254Z,4.50
2017-12-28T07:42:01.922Z,4.40
2017-12-28T07:44:28.597Z,4.28
2017-12-28T07:46:55.243Z,4.78
2017-12-28T07:49:21.947Z,4.40
2017-12-28T07:51:48.645Z,2.30
2017-12-28T07:54:15.314Z,4.70
2017-12-28T07:56:41.978Z,4.50
2017-12-28T07:59:08.639Z,2.30
2017-12-28T08:01:35.303Z,4.35
2017-12-28T08:04:01.939Z,4.00
2017-12-28T08:06:28.637Z,5.28
2017-12-28T08:08:55.284Z,4.30
2017-12-28T08:11:21.922Z,4.60
2017-12-28T08:13:48.579Z,4.60
2017-12-28T08:16:15.290Z,4.43
2017-12-28T08:18:41.940Z,3.15
2017-12-28T08:21:08.598Z,4.40
2017-12-28T08:23:35.247Z,4.35
2017-12-28T08:26:01.902Z,2.30
2017-12-28T08:28:28.565Z,4.60
2017-12-28T08:30:55.211Z,4.32
2017-12-28T08:33:21.903Z,4.80
2017-12-28T08:35:48.547Z,4.60
2017-12-28T08:38:15.207Z,4.53
2017-12-28T08:40:41.880Z,4.70
2017-12-28T08:43:08.540Z,4.80
2017-12-28T08:45:35.186Z,5.00
2017-12-28T08:48:01.855Z,5.22
2017-12-28T08:50:28.522Z,4.97
2017-12-28T08:52:55.190Z,4.90
2017-12-28T08:55:21.858Z,4.70
2017-12-28T08:57:48.538Z,2.30
2017-12-28T09:00:15.183Z,4.70
2017-12-28T09:02:41.845Z,4.80
2017-12-28T09:05:08.518Z,4.80
2017-12-28T09:07:35.176Z,4.85
2017-12-28T09:10:01.832Z,4.90
2017-12-28T09:12:28.496Z,4.70
2017-12-28T09:14:55.133Z,4.65
2017-12-28T09:17:21.791Z,4.65
2017-12-28T09:19:48.435Z,4.68
2017-12-28T09:22:15.088Z,4.62
2017-12-28T09:24:41.769Z,3.17
2017-12-28T09:27:08.434Z,4.70
2017-12-28T09:29:35.093Z,4.50
2017-12-28T09:32:01.767Z,2.83
2017-12-28T09:34:28.428Z,4.50
2017-12-28T09:36:55.088Z,4.70
2017-12-28T09:39:21.759Z,4.60
2017-12-28T09:41:48.413Z,4.60
2017-12-28T09:44:15.077Z,4.53
2017-12-28T09:46:41.760Z,4.50
2017-12-28T09:49:08.433Z,4.30
2017-12-28T09:51:35.102Z,4.30
2017-12-28T09:54:01.743Z,4.40
2017-12-28T09:56:28.406Z,4.30
2017-12-28T09:58:55.937Z,4.22
2017-12-28T10:01:22.595Z,4.07
2017-12-28T10:03:49.284Z,4.50
2017-12-28T10:06:15.952Z,4.37
2017-12-28T10:08:42.618Z,4.30
2017-12-28T10:11:09.280Z,4.37
2017-12-28T10:13:35.994Z,4.50
2017-12-28T10:16:02.762Z,4.35
2017-12-28T10:18:29.502Z,4.50
2017-12-28T10:20:56.192Z,4.20
2017-12-28T10:23:22.855Z,4.40
2017-12-28T10:25:49.531Z,4.55
2017-12-28T10:28:16.200Z,4.60
2017-12-28T10:30:42.865Z,4.40
2017-12-28T10:33:09.620Z,4.20
2017-12-28T10:35:36.294Z,4.30
2017-12-28T10:38:02.982Z,4.30
2017-12-28T10:40:29.666Z,4.25
2017-12-28T10:42:56.341Z,4.10
2017-12-28T10:45:23.002Z,2.00
2017-12-28T10:47:49.674Z,4.30
2017-12-28T10:50:16.339Z,4.05
2017-12-28T10:52:43.017Z,4.32
2017-12-28T10:55:09.698Z,4.30
2017-12-28T10:57:36.430Z,4.32
2017-12-28T11:00:03.090Z,4.50
2017-12-28T11:02:29.763Z,4.20
2017-12-28T11:04:56.440Z,4.30
2017-12-28T11:07:23.116Z,4.50
2017-12-28T11:09:49.806Z,4.10
2017-12-28T11:12:16.456Z,4.10
2017-12-28T11:14:43.130Z,4.22
2017-12-28T11:17:09.798Z,3.80
2017-12-28T11:19:36.469Z,4.40
2017-12-28T11:22:03.208Z,4.30
2017-12-28T11:24:29.871Z,2.20
2017-12-28T11:26:56.545Z,4.10
2017-12-28T11:29:23.232Z,3.90
2017-12-28T11:31:49.896Z,4.20
2017-12-28T11:34:16.571Z,4.20
2017-12-28T11:36:43.239Z,3.80
2017-12-28T11:39:09.900Z,3.83
2017-12-28T11:41:36.555Z,4.10
2017-12-28T11:44:03.249Z,3.78
2017-12-28T11:46:29.949Z,4.05
2017-12-28T11:48:56.641Z,3.80
2017-12-28T11:51:23.315Z,3.80
2017-12-28T11:53:49.974Z,3.95
2017-12-28T11:56:19.654Z,1.70
2017-12-28T11:58:49.169Z,4.15
2017-12-28T12:01:18.535Z,3.90
2017-12-28T12:03:45.194Z,1.70
2017-12-28T12:06:11.834Z,3.67
2017-12-28T12:08:44.420Z,3.53
2017-12-28T12:11:11.090Z,3.60
2017-12-28T12:13:37.815Z,3.80
2017-12-28T12:16:04.494Z,3.90
2017-12-28T12:18:31.171Z,3.95
2017-12-28T12:20:57.830Z,3.80
2017-12-28T12:23:24.522Z,3.80
2017-12-28T12:25:51.164Z,3.90
2017-12-28T12:28:17.834Z,4.10
2017-12-28T12:30:44.506Z,3.90
2017-12-28T12:33:11.223Z,3.85
2017-12-28T12:35:37.882Z,1.80
2017-12-28T12:38:04.546Z,3.72
2017-12-28T12:40:31.208Z,3.90
2017-12-28T12:42:57.880Z,1.70
2017-12-28T12:45:24.583Z,3.40
2017-12-28T12:47:51.250Z,3.70
2017-12-28T12:50:17.929Z,3.90
2017-12-28T12:52:44.610Z,3.70
2017-12-28T12:55:11.275Z,3.70
2017-12-28T12:57:37.921Z,3.90
2017-12-28T13:00:04.615Z,3.70
2017-12-28T13:02:31.291Z,3.70
2017-12-28T13:04:58.040Z,3.80
2017-12-28T13:07:24.713Z,3.90
2017-12-28T13:09:51.438Z,3.90
2017-12-28T13:12:18.078Z,4.03
2017-12-28T13:14:44.763Z,4.05
2017-12-28T13:17:11.750Z,4.22
2017-12-28T13:19:38.562Z,3.47
2017-12-28T13:22:06.050Z,4.20
2017-12-28T13:24:32.764Z,4.30
2017-12-28T13:26:59.738Z,4.10
2017-12-28T13:29:26.812Z,4.40
2017-12-28T13:31:53.942Z,4.15
2017-12-28T13:34:21.069Z,4.40
2017-12-28T13:36:48.568Z,4.20
2017-12-28T13:39:17.029Z,4.20
2017-12-28T13:41:44.768Z,4.30
2017-12-28T13:44:12.255Z,4.55
2017-12-28T13:46:39.018Z,4.30
2017-12-28T13:49:05.942Z,4.55
2017-12-28T13:51:32.992Z,4.60
2017-12-28T13:53:59.751Z,4.80
2017-12-28T13:56:26.716Z,4.70
2017-12-28T13:58:53.417Z,4.50
2017-12-28T14:01:20.071Z,4.70
2017-12-28T14:03:47.108Z,4.62
2017-12-28T14:06:13.809Z,4.70
2017-12-28T14:08:40.534Z,4.75
2017-12-28T14:11:07.237Z,3.55
2017-12-28T14:13:34.282Z,4.60
2017-12-28T14:16:02.051Z,4.40
2017-12-28T14:18:29.924Z,4.20
2017-12-28T14:20:56.668Z,4.50
2017-12-28T14:23:23.609Z,4.45
2017-12-28T14:25:51.677Z,4.45
2017-12-28T14:28:20.254Z,4.50
2017-12-28T14:30:47.127Z,4.30
2017-12-28T14:33:14.205Z,4.50
2017-12-28T14:35:44.103Z,4.40
2017-12-28T14:38:11.322Z,4.30
2017-12-28T14:40:38.210Z,4.40
2017-12-28T14:43:05.112Z,4.50
2017-12-28T14:45:31.834Z,4.40
2017-12-28T14:47:59.044Z,4.20
2017-12-28T14:50:26.076Z,4.50
2017-12-28T14:52:53.339Z,4.60
2017-12-28T14:55:20.213Z,4.70
2017-12-28T14:57:47.005Z,4.80
2017-12-28T15:00:13.864Z,4.82
2017-12-28T15:02:40.550Z,4.87
2017-12-28T15:05:09.274Z,4.85
2017-12-28T15:07:36.794Z,4.90
2017-12-28T15:10:04.559Z,5.30
2017-12-28T15:12:34.523Z,5.20
2017-12-28T15:15:02.143Z,5.35
2017-12-28T15:17:30.325Z,5.05
2017-12-28T15:19:58.402Z,5.80
2017-12-28T15:22:26.421Z,5.40
2017-12-28T15:24:54.257Z,5.10
2017-12-28T15:27:23.818Z,5.30
2017-12-28T15:29:51.176Z,5.50
2017-12-28T15:32:18.915Z,4.12
2017-12-28T15:34:46.495Z,5.90
2017-12-28T15:37:14.670Z,5.72
2017-12-28T15:39:43.413Z,5.35
2017-12-28T15:42:10.765Z,6.10
2017-12-28T15:44:38.372Z,5.93
2017-12-28T15:47:05.055Z,5.87
2017-12-28T15:49:32.598Z,6.00
2017-12-28T15:51:59.258Z,6.00
2017-12-28T15:54:26.723Z,5.90
2017-12-28T15:56:53.391Z,6.28
2017-12-28T15:59:20.076Z,6.15
2017-12-28T16:01:46.731Z,6.30
2017-12-28T16:04:13.506Z,6.50
2017-12-28T16:06:40.188Z,6.10
2017-12-28T16:09:06.950Z,6.28
2017-12-28T16:11:33.609Z,6.00
2017-12-28T16:14:00.248Z,6.30
2017-12-28T16:16:26.919Z,6.50
2017-12-28T16:18:53.571Z,6.62
2017-12-28T16:21:20.288Z,6.85
2017-12-28T16:23:47.000Z,6.60
2017-12-28T16:26:13.753Z,6.70
2017-12-28T16:28:40.408Z,6.70
2017-12-28T16:31:07.093Z,6.70
2017-12-28T16:33:33.758Z,6.50
2017-12-28T16:36:00.400Z,6.35
2017-12-28T16:38:27.089Z,6.40
2017-12-28T16:40:53.770Z,6.15
2017-12-28T16:43:20.844Z,6.50
2017-12-28T16:45:47.692Z,6.00
2017-12-28T16:48:14.344Z,6.40
2017-12-28T16:50:41.008Z,6.28
2017-12-28T16:53:07.728Z,4.65
2017-12-28T16:55:34.417Z,5.90
2017-12-28T16:58:01.062Z,6.30
2017-12-28T17:00:28.544Z,6.25
2017-12-28T17:02:55.205Z,6.18
2017-12-28T17:05:21.866Z,6.30
2017-12-28T17:07:48.550Z,6.68
2017-12-28T17:10:15.195Z,6.37
2017-12-28T17:12:41.853Z,6.95
2017-12-28T17:15:08.530Z,6.60
2017-12-28T17:17:35.216Z,6.50
2017-12-28T17:20:01.912Z,6.80
2017-12-28T17:22:28.580Z,6.95
2017-12-28T17:24:55.219Z,6.32
2017-12-28T17:27:22.184Z,6.70
2017-12-28T17:29:51.323Z,6.70
2017-12-28T17:32:18.837Z,6.70
2017-12-28T17:34:47.301Z,6.68
2017-12-28T17:37:14.962Z,6.60
2017-12-28T17:39:43.612Z,6.95
2017-12-28T17:42:11.132Z,7.05
2017-12-28T17:44:39.047Z,6.80
2017-12-28T17:47:05.774Z,6.70
2017-12-28T17:49:33.417Z,6.78
2017-12-28T17:52:02.035Z,6.90
2017-12-28T17:54:30.160Z,7.10
2017-12-28T17:56:58.777Z,6.85
2017-12-28T17:59:26.513Z,6.70
2017-12-28T18:01:54.161Z,6.80
2017-12-28T18:04:22.026Z,6.90
2017-12-28T18:06:51.643Z,6.93
2017-12-28T18:09:18.346Z,7.00
2017-12-28T18:11:45.029Z,7.00
2017-12-28T18:14:11.709Z,6.93
2017-12-28T18:16:38.368Z,6.80
2017-12-28T18:19:05.041Z,6.93
2017-12-28T18:21:31.688Z,7.20
2017-12-28T18:23:58.433Z,6.72
2017-12-28T18:26:25.101Z,6.70
2017-12-28T18:28:51.756Z,6.93
2017-12-28T18:31:18.411Z,6.80
2017-12-28T18:33:45.092Z,6.75
2017-12-28T18:36:11.766Z,6.60
2017-12-28T18:38:38.441Z,6.85
2017-12-28T18:41:05.105Z,3.70
2017-12-28T18:43:31.881Z,6.40
2017-12-28T18:45:58.547Z,6.45
2017-12-28T18:48:25.219Z,6.40
2017-12-28T18:50:51.896Z,6.53
2017-12-28T18:53:18.613Z,6.00
2017-12-28T18:55:45.273Z,6.70
2017-12-28T18:58:11.997Z,6.70
2017-12-28T19:00:38.670Z,6.65
2017-12-28T19:03:05.342Z,6.65
2017-12-28T19:05:32.037Z,6.35
2017-12-28T19:07:58.712Z,6.40
2017-12-28T19:10:25.356Z,6.20
2017-12-28T19:12:51.996Z,6.10
2017-12-28T19:15:18.679Z,5.90
2017-12-28T19:17:45.319Z,5.87
2017-12-28T19:20:11.985Z,6.40
2017-12-28T19:22:38.697Z,5.90
2017-12-28T19:25:05.339Z,5.97
2017-12-28T19:27:31.999Z,6.30
2017-12-28T19:29:58.685Z,6.00
2017-12-28T19:32:25.353Z,6.12
2017-12-28T19:34:51.991Z,5.68
2017-12-28T19:37:18.696Z,5.80
2017-12-28T19:39:45.363Z,5.90
2017-12-28T19:42:12.033Z,6.00
2017-12-28T19:44:40.394Z,6.03
2017-12-28T19:47:07.090Z,5.53
2017-12-28T19:49:33.878Z,5.70
2017-12-28T19:52:00.703Z,3.90
2017-12-28T19:54:27.692Z,5.85
2017-12-28T19:56:54.375Z,6.00
2017-12-28T19:59:21.050Z,5.80
2017-12-28T20:01:47.802Z,5.80
2017-12-28T20:04:14.480Z,6.12
2017-12-28T20:06:41.286Z,5.75
2017-12-28T20:09:08.155Z,5.75
2017-12-28T20:11:34.842Z,5.90
2017-12-28T20:14:01.539Z,5.47
2017-12-28T20:16:28.188Z,5.72
2017-12-28T20:18:54.856Z,4.72
2017-12-28T20:21:21.512Z,5.40
2017-12-28T20:23:48.177Z,5.47
2017-12-28T20:26:14.832Z,5.60
2017-12-28T20:28:41.491Z,5.50
2017-12-28T20:31:08.161Z,5.60
2017-12-28T20:33:35.342Z,5.80
2017-12-28T20:36:02.195Z,5.82
2017-12-28T20:38:28.845Z,5.90
2017-12-28T20:40:55.523Z,6.20
2017-12-28T20:43:22.179Z,6.65
2017-12-28T20:45:49.136Z,6.40
2017-12-28T20:48:16.183Z,6.70
2017-12-28T20:50:42.867Z,6.18
2017-12-28T20:53:09.563Z,6.62
2017-12-28T20:55:36.224Z,6.95
2017-12-28T20:58:02.897Z,6.95
2017-12-28T21:00:29.539Z,7.10
2017-12-28T21:02:56.223Z,4.12
2017-12-28T21:05:22.877Z,6.75
2017-12-28T21:07:49.519Z,6.90
2017-12-28T21:10:16.187Z,4.25
2017-12-28T21:12:42.839Z,6.90
2017-12-28T21:15:09.508Z,7.50
2017-12-28T21:17:36.190Z,7.32
2017-12-28T21:20:02.910Z,7.50
2017-12-28T21:22:29.556Z,7.10
2017-12-28T21:24:56.286Z,7.40
2017-12-28T21:27:22.933Z,7.37
2017-12-28T21:29:49.598Z,4.97
2017-12-28T21:32:16.263Z,7.50
2017-12-28T21:34:42.939Z,7.20
2017-12-28T21:37:09.586Z,7.40
2017-12-28T21:39:36.252Z,7.40
2017-12-28T21:42:02.921Z,7.55
2017-12-28T21:44:29.602Z,7.90
2017-12-28T21:46:56.247Z,7.95
2017-12-28T21:49:22.903Z,7.55
2017-12-28T21:51:49.586Z,8.30
2017-12-28T21:54:16.232Z,7.95
2017-12-28T21:56:42.914Z,7.60
2017-12-28T21:59:09.579Z,7.93
2017-12-28T22:01:36.245Z,7.07
2017-12-28T22:04:02.895Z,7.82
2017-12-28T22:06:29.573Z,7.80
2017-12-28T22:08:56.229Z,8.20
2017-12-28T22:11:22.922Z,7.65
2017-12-28T22:13:49.646Z,7.97
2017-12-28T22:16:16.318Z,7.90
2017-12-28T22:18:43.070Z,7.60
2017-12-28T22:21:09.724Z,7.90
2017-12-28T22:23:36.372Z,8.10
2017-12-28T22:26:03.077Z,8.07
2017-12-28T22:28:29.813Z,7.80
2017-12-28T22:30:56.455Z,8.05
2017-12-28T22:33:23.138Z,7.80
2017-12-28T22:35:49.806Z,7.90
2017-12-28T22:38:16.452Z,7.70
2017-12-28T22:40:43.111Z,7.40
2017-12-28T22:43:09.769Z,7.75
2017-12-28T22:45:36.487Z,7.40
2017-12-28T22:48:03.157Z,7.90
2017-12-28T22:50:29.804Z,7.65
2017-12-28T22:52:56.451Z,7.55
2017-12-28T22:55:23.113Z,7.28
2017-12-28T22:57:49.753Z,3.90
2017-12-28T23:00:16.418Z,7.25
2017-12-28T23:02:43.072Z,7.00
2017-12-28T23:05:09.712Z,7.40
2017-12-28T23:07:36.369Z,7.18
2017-12-28T23:10:03.059Z,7.50
2017-12-28T23:12:30.407Z,7.30
2017-12-28T23:14:57.104Z,6.97
2017-12-28T23:17:23.791Z,7.28
2017-12-28T23:19:50.428Z,7.47
2017-12-28T23:22:17.222Z,4.00
2017-12-28T23:24:43.862Z,7.45
2017-12-28T23:27:10.695Z,7.20
2017-12-28T23:29:37.432Z,7.00
2017-12-28T23:32:04.174Z,7.40
2017-12-28T23:34:30.831Z,7.20
2017-12-28T23:36:57.505Z,7.00
2017-12-28T23:39:24.191Z,7.18
2017-12-28T23:41:50.836Z,6.70
2017-12-28T23:44:17.495Z,6.95
2017-12-28T23:46:44.154Z,4.05
2017-12-28T23:49:10.816Z,6.50
2017-12-28T23:51:37.494Z,7.05
2017-12-28T23:54:04.149Z,6.90
2017-12-28T23:56:30.799Z,6.50
2017-12-28T23:58:57.483Z,6.80
